Time;durP1;ratioP1;P1;durP2;ratioP2;P2;SDS_P1;SDS_P2;PMS_P1;PMS_P2;Temp;Humidity;BMP_temperature;BMP_pressure;BME280_temperature;BME280_humidity;BME280_pressure;Samples;Min_cycle;Max_cycle;Signal;HPM_P1;HPM_P2
2022/03/04 00:02:19;;;;;;;36.63;27.47;;;;;;;0.25;59.93;94606.31;5048745;28;20225;-70
2022/03/04 00:04:44;;;;;;;40.30;31.03;;;;;;;0.31;59.83;94597.34;5054118;28;20228;-71
2022/03/04 00:07:11;;;;;;;32.17;25.27;;;;;;;0.18;60.15;94602.47;5051364;28;20721;-72
2022/03/04 00:09:36;;;;;;;39.17;27.67;;;;;;;0.09;60.56;94600.50;5068672;28;20227;-71
2022/03/04 00:12:03;;;;;;;37.27;26.37;;;;;;;0.17;60.48;94601.66;5050237;28;20212;-72
2022/03/04 00:14:30;;;;;;;36.10;27.17;;;;;;;0.25;60.38;94610.66;5051027;28;20315;-71
2022/03/04 00:16:56;;;;;;;45.07;29.57;;;;;;;0.19;60.36;94599.78;5065893;28;20224;-71
2022/03/04 00:19:22;;;;;;;39.30;29.60;;;;;;;0.04;60.71;94602.53;5049826;28;20260;-72
2022/03/04 00:21:49;;;;;;;41.67;29.00;;;;;;;-0.16;61.92;94596.03;5067896;28;20223;-72
2022/03/04 00:24:19;;;;;;;43.40;29.73;;;;;;;-0.06;61.45;94604.88;5067036;28;20249;-71
2022/03/04 00:26:46;;;;;;;40.13;28.20;;;;;;;-0.05;61.62;94596.22;5051715;28;20303;-71
2022/03/04 00:29:11;;;;;;;42.90;30.30;;;;;;;0.08;61.40;94601.41;5065808;28;20229;-72
2022/03/04 00:31:38;;;;;;;43.33;31.40;;;;;;;0.04;61.44;94599.94;5051377;28;20231;-72
2022/03/04 00:34:06;;;;;;;38.10;27.80;;;;;;;0.01;61.21;94592.41;5051390;28;20204;-72
2022/03/04 00:36:33;;;;;;;45.63;27.23;;;;;;;0.02;60.94;94591.47;5051013;28;20244;-71
2022/03/04 00:38:58;;;;;;;44.50;29.73;;;;;;;-0.01;61.53;94595.91;5034298;28;20259;-72
2022/03/04 00:41:24;;;;;;;41.67;28.20;;;;;;;0.04;61.25;94594.78;5050209;28;20243;-72
2022/03/04 00:43:51;;;;;;;39.37;27.50;;;;;;;0.08;60.80;94589.31;5049555;28;20213;-72
2022/03/04 00:46:17;;;;;;;41.23;27.73;;;;;;;0.04;60.81;94587.03;5051427;28;20212;-72
2022/03/04 00:48:44;;;;;;;40.23;26.60;;;;;;;-0.14;60.63;94583.84;5047720;28;20225;-70
2022/03/04 00:51:10;;;;;;;42.63;27.27;;;;;;;-0.09;61.30;94590.38;5049278;28;20236;-72
2022/03/04 00:53:37;;;;;;;38.53;27.13;;;;;;;-0.08;60.77;94586.91;5051020;28;20247;-70
2022/03/04 00:56:03;;;;;;;48.33;31.90;;;;;;;-0.27;61.45;94597.56;5046963;28;20274;-72
2022/03/04 00:58:28;;;;;;;55.63;35.53;;;;;;;-0.27;62.32;94583.81;5046713;28;20201;-71
2022/03/04 01:00:54;;;;;;;58.93;35.57;;;;;;;-0.16;62.62;94583.13;5064034;28;20224;-70
2022/03/04 01:03:19;;;;;;;43.60;29.20;;;;;;;-0.20;62.28;94581.66;5050588;28;20532;-70
2022/03/04 01:05:45;;;;;;;39.93;27.30;;;;;;;-0.18;62.08;94577.25;5066478;28;20224;-71
2022/03/04 01:08:10;;;;;;;41.33;28.73;;;;;;;-0.12;61.46;94582.00;5048255;28;20224;-71
2022/03/04 01:10:37;;;;;;;48.00;33.87;;;;;;;-0.15;62.36;94580.44;5049880;28;20221;-70
2022/03/04 01:13:03;;;;;;;49.90;33.03;;;;;;;-0.18;62.63;94579.81;5066591;28;20231;-71
2022/03/04 01:15:29;;;;;;;45.80;30.27;;;;;;;-0.24;62.19;94570.72;5047447;28;20220;-70
2022/03/04 01:17:55;;;;;;;44.20;29.30;;;;;;;-0.34;62.47;94578.22;5069828;28;20357;-70
2022/03/04 01:20:20;;;;;;;39.27;27.43;;;;;;;-0.29;62.52;94568.41;5051105;28;20251;-71
2022/03/04 01:22:46;;;;;;;48.73;32.23;;;;;;;-0.26;62.52;94567.41;5050312;28;20212;-71
2022/03/04 01:25:12;;;;;;;48.90;30.20;;;;;;;-0.14;62.15;94565.78;5049349;28;20216;-69
2022/03/04 01:27:37;;;;;;;45.20;29.40;;;;;;;-0.17;62.11;94564.22;5051258;28;20216;-72
2022/03/04 01:30:05;;;;;;;46.33;29.57;;;;;;;-0.30;62.53;94566.75;5064122;28;20221;-70
2022/03/04 01:32:31;;;;;;;41.97;29.27;;;;;;;-0.36;62.57;94556.81;5049662;28;20619;-71
2022/03/04 01:34:57;;;;;;;34.00;24.77;;;;;;;-0.32;62.30;94565.19;5050425;28;20225;-70
2022/03/04 01:37:22;;;;;;;31.13;23.07;;;;;;;-0.50;62.31;94560.25;5067881;28;20281;-72
2022/03/04 01:39:47;;;;;;;32.83;23.47;;;;;;;-0.48;62.36;94560.19;5051233;28;20220;-70
2022/03/04 01:42:14;;;;;;;32.43;23.60;;;;;;;-0.48;61.99;94558.41;5065270;28;20213;-71
2022/03/04 01:44:40;;;;;;;28.40;22.57;;;;;;;-0.42;61.82;94556.38;5049440;28;20282;-70
2022/03/04 01:47:06;;;;;;;28.53;22.53;;;;;;;-0.23;61.02;94552.50;5049062;28;20698;-72
2022/03/04 01:49:32;;;;;;;30.17;22.57;;;;;;;-0.28;61.45;94566.66;5050767;28;20251;-71
2022/03/04 01:51:58;;;;;;;32.83;23.93;;;;;;;-0.28;61.44;94556.31;5052408;28;20220;-70
2022/03/04 01:54:24;;;;;;;32.47;24.43;;;;;;;-0.41;62.29;94553.69;5070100;28;20216;-71
2022/03/04 01:56:49;;;;;;;30.20;23.77;;;;;;;-0.37;61.96;94538.84;5054139;28;20223;-72
2022/03/04 01:59:14;;;;;;;29.17;21.80;;;;;;;-0.36;61.60;94540.47;5052996;28;20217;-71
2022/03/04 02:01:40;;;;;;;33.53;22.50;;;;;;;-0.32;61.85;94544.50;5054237;28;20208;-70
2022/03/04 02:04:06;;;;;;;27.57;22.17;;;;;;;-0.34;61.76;94542.03;5069138;28;20221;-71
2022/03/04 02:06:31;;;;;;;27.30;21.73;;;;;;;-0.36;61.84;94540.47;5058672;28;20234;-72
2022/03/04 02:08:57;;;;;;;29.27;22.13;;;;;;;-0.32;61.37;94537.63;5051105;28;20217;-72
2022/03/04 02:11:22;;;;;;;28.53;21.27;;;;;;;-0.25;61.12;94538.84;5070647;28;20294;-70
2022/03/04 02:13:48;;;;;;;29.43;22.23;;;;;;;-0.29;61.70;94531.41;5053039;28;20217;-71
2022/03/04 02:16:26;;;;;;;27.80;21.67;;;;;;;-0.34;61.34;94539.47;5070271;28;20200;-72
2022/03/04 02:18:52;;;;;;;26.80;20.47;;;;;;;-0.33;61.33;94535.94;5051093;28;20220;-72
2022/03/04 02:21:22;;;;;;;27.03;21.70;;;;;;;-0.24;61.26;94529.38;5052202;28;20213;-72
2022/03/04 02:23:48;;;;;;;28.90;21.23;;;;;;;-0.34;61.80;94533.47;5068360;28;20229;-71
2022/03/04 02:26:13;;;;;;;26.40;20.97;;;;;;;-0.39;61.66;94530.34;5054144;28;20547;-71
2022/03/04 02:28:39;;;;;;;28.37;21.50;;;;;;;-0.42;61.67;94526.19;5051607;28;20262;-71
2022/03/04 02:31:04;;;;;;;29.90;22.13;;;;;;;-0.55;62.35;94531.31;5058231;28;20260;-74
2022/03/04 02:33:30;;;;;;;31.13;22.30;;;;;;;-0.54;62.79;94526.97;5053547;28;20236;-72
2022/03/04 02:35:55;;;;;;;28.50;21.33;;;;;;;-0.52;62.29;94531.13;5069832;28;20232;-73
2022/03/04 02:38:21;;;;;;;27.93;20.93;;;;;;;-0.53;62.24;94533.81;5071472;28;20225;-73
2022/03/04 02:40:46;;;;;;;27.30;21.03;;;;;;;-0.49;62.48;94538.66;5054040;28;20279;-73
2022/03/04 02:43:11;;;;;;;26.90;20.47;;;;;;;-0.58;62.12;94530.69;5071802;28;20213;-72
2022/03/04 02:45:41;;;;;;;27.83;20.73;;;;;;;-0.63;62.19;94537.91;5050907;28;20213;-72
2022/03/04 02:48:07;;;;;;;25.37;20.43;;;;;;;-0.65;62.02;94532.00;5051397;28;20290;-72
2022/03/04 02:50:33;;;;;;;22.57;18.23;;;;;;;-0.56;61.38;94516.75;5053118;28;20228;-73
2022/03/04 02:52:58;;;;;;;24.83;18.70;;;;;;;-0.63;61.24;94520.63;5051712;28;20224;-74
2022/03/04 02:55:24;;;;;;;22.50;17.87;;;;;;;-0.71;61.85;94531.44;5049069;28;20247;-73
2022/03/04 02:57:49;;;;;;;23.17;17.20;;;;;;;-0.68;61.47;94530.44;5052653;28;20221;-72
2022/03/04 03:00:16;;;;;;;19.97;17.07;;;;;;;-0.70;61.19;94532.25;5051486;28;20236;-72
2022/03/04 03:02:43;;;;;;;21.33;17.07;;;;;;;-0.64;60.67;94526.75;5055090;28;20302;-73
2022/03/04 03:05:09;;;;;;;22.97;17.93;;;;;;;-0.58;60.58;94528.09;5052080;28;20292;-71
2022/03/04 03:07:35;;;;;;;20.30;16.00;;;;;;;-0.66;61.08;94528.59;5053709;28;20215;-70
2022/03/04 03:10:00;;;;;;;21.00;16.63;;;;;;;-0.64;61.57;94531.91;5068398;28;20228;-73
2022/03/04 03:12:27;;;;;;;23.20;17.40;;;;;;;-0.66;61.41;94531.16;5052222;28;20232;-71
2022/03/04 03:14:52;;;;;;;20.37;15.93;;;;;;;-0.76;60.96;94527.50;5052770;28;20304;-71
2022/03/04 03:17:18;;;;;;;22.73;16.77;;;;;;;-0.60;61.41;94528.19;5052912;28;20220;-72
2022/03/04 03:19:43;;;;;;;21.30;15.80;;;;;;;-0.61;60.79;94523.97;5070367;28;20234;-74
2022/03/04 03:22:09;;;;;;;22.50;16.03;;;;;;;-0.65;60.67;94521.66;5069042;28;20323;-71
2022/03/04 03:24:35;;;;;;;19.63;15.57;;;;;;;-0.62;60.86;94524.88;5051967;28;20236;-69
2022/03/04 03:27:00;;;;;;;18.47;14.77;;;;;;;-0.59;60.48;94531.59;5068314;28;20271;-71
2022/03/04 03:29:26;;;;;;;19.80;15.03;;;;;;;-0.68;60.50;94531.25;5048588;28;20367;-70
2022/03/04 03:31:51;;;;;;;19.50;15.10;;;;;;;-0.57;60.53;94528.00;5053565;28;20208;-70
2022/03/04 03:34:16;;;;;;;18.67;15.70;;;;;;;-0.62;60.33;94535.19;5053526;28;20238;-71
2022/03/04 03:36:42;;;;;;;18.63;14.23;;;;;;;-0.69;60.18;94539.09;5049570;28;20246;-70
2022/03/04 03:39:10;;;;;;;18.13;15.27;;;;;;;-0.62;60.63;94539.53;5052253;28;20232;-69
2022/03/04 03:41:36;;;;;;;18.50;15.53;;;;;;;-0.61;60.79;94548.97;5051240;28;20325;-70
2022/03/04 03:44:02;;;;;;;20.43;16.67;;;;;;;-0.66;61.14;94551.81;5050927;28;20560;-70
2022/03/04 03:46:27;;;;;;;21.47;14.77;;;;;;;-0.72;61.17;94537.53;5056212;28;20224;-70
2022/03/04 03:48:53;;;;;;;20.10;15.17;;;;;;;-0.75;60.85;94544.63;5047808;28;20229;-71
2022/03/04 03:51:18;;;;;;;18.63;15.00;;;;;;;-0.74;60.74;94533.41;5073160;28;20282;-70
2022/03/04 03:53:44;;;;;;;20.27;14.57;;;;;;;-0.98;61.27;94541.72;5053097;28;20346;-70
2022/03/04 03:56:09;;;;;;;19.70;16.83;;;;;;;-0.98;61.60;94543.47;5052149;28;20235;-73
2022/03/04 03:58:35;;;;;;;19.60;15.57;;;;;;;-0.98;61.34;94536.56;5052095;28;20200;-72
2022/03/04 04:01:01;;;;;;;17.77;14.70;;;;;;;-0.92;61.77;94540.53;5049463;28;20232;-71
2022/03/04 04:03:26;;;;;;;18.20;14.50;;;;;;;-0.85;61.27;94539.22;5046467;28;20239;-72
2022/03/04 04:05:52;;;;;;;19.77;14.93;;;;;;;-0.88;61.04;94536.84;5048308;28;20228;-71
2022/03/04 04:08:17;;;;;;;18.30;13.00;;;;;;;-0.86;60.85;94547.06;5068041;28;20250;-70
2022/03/04 04:10:43;;;;;;;23.57;17.73;;;;;;;-0.96;61.72;94547.63;5049616;28;20213;-70
2022/03/04 04:13:08;;;;;;;28.07;19.37;;;;;;;-1.11;62.86;94548.56;5068437;28;20276;-71
2022/03/04 04:15:34;;;;;;;26.77;19.37;;;;;;;-0.91;62.92;94545.59;5049518;28;20221;-70
2022/03/04 04:17:59;;;;;;;24.63;18.07;;;;;;;-1.04;62.73;94544.69;5051375;28;20232;-70
2022/03/04 04:20:25;;;;;;;19.67;15.93;;;;;;;-1.07;62.57;94544.84;5047941;28;20686;-71
2022/03/04 04:22:50;;;;;;;22.03;16.33;;;;;;;-1.04;61.80;94549.84;5030858;28;20230;-71
2022/03/04 04:25:16;;;;;;;31.50;23.47;;;;;;;-1.14;64.25;94552.16;5050944;28;20220;-71
2022/03/04 04:27:41;;;;;;;30.90;23.07;;;;;;;-1.03;64.13;94548.09;5050810;28;20229;-71
2022/03/04 04:30:08;;;;;;;29.23;22.57;;;;;;;-1.14;64.51;94553.91;5051037;28;20232;-71
2022/03/04 04:32:33;;;;;;;28.97;23.17;;;;;;;-1.04;64.44;94549.84;5050494;28;20374;-71
2022/03/04 04:34:59;;;;;;;30.23;23.90;;;;;;;-1.20;64.53;94560.28;5049984;28;20300;-71
2022/03/04 04:37:24;;;;;;;28.60;23.37;;;;;;;-1.22;65.05;94562.09;5069068;28;20209;-72
2022/03/04 04:39:50;;;;;;;32.03;23.37;;;;;;;-1.24;64.94;94555.38;5050809;28;20224;-70
2022/03/04 04:42:15;;;;;;;30.77;23.87;;;;;;;-1.14;64.55;94559.06;5063703;28;20228;-71
2022/03/04 04:44:41;;;;;;;34.70;24.00;;;;;;;-1.36;65.34;94570.66;5051509;28;20228;-70
2022/03/04 04:47:06;;;;;;;30.43;23.40;;;;;;;-1.31;65.62;94574.72;5049311;28;20245;-71
2022/03/04 04:49:36;;;;;;;31.40;24.83;;;;;;;-1.23;65.04;94577.66;5051834;28;20224;-71
2022/03/04 04:52:06;;;;;;;35.37;25.37;;;;;;;-1.31;64.92;94577.28;5068771;28;20362;-71
2022/03/04 04:54:32;;;;;;;31.13;24.00;;;;;;;-1.39;65.29;94575.16;5049763;28;20242;-71
2022/03/04 04:56:58;;;;;;;31.83;24.93;;;;;;;-1.41;65.83;94571.88;5049688;28;20224;-71
2022/03/04 04:59:23;;;;;;;31.13;24.60;;;;;;;-1.38;66.21;94575.09;5049249;28;20228;-71
2022/03/04 05:01:48;;;;;;;36.73;24.77;;;;;;;-1.35;65.54;94580.06;5048181;28;20216;-71
2022/03/04 05:04:14;;;;;;;30.80;24.67;;;;;;;-1.29;65.66;94583.19;5050845;28;20228;-70
2022/03/04 05:06:40;;;;;;;30.67;25.27;;;;;;;-1.24;65.62;94588.91;5050826;28;20232;-71
2022/03/04 05:09:05;;;;;;;34.13;23.93;;;;;;;-1.18;64.84;94579.03;5047012;28;20221;-72
2022/03/04 05:11:31;;;;;;;33.93;25.50;;;;;;;-1.15;64.69;94578.03;5049948;28;20224;-71
2022/03/04 05:13:56;;;;;;;31.50;24.70;;;;;;;-1.15;64.88;94576.31;5067069;28;20263;-71
2022/03/04 05:16:22;;;;;;;34.10;27.00;;;;;;;-1.15;65.16;94578.03;5050154;28;20278;-71
2022/03/04 05:18:47;;;;;;;40.10;29.80;;;;;;;-1.13;64.80;94573.63;5050875;28;20228;-70
2022/03/04 05:21:13;;;;;;;34.20;27.93;;;;;;;-1.12;64.81;94585.63;5064959;28;20220;-70
2022/03/04 05:26:22;;;;;;;34.67;27.80;;;;;;;-1.05;64.97;94576.56;5068405;28;20262;-70
2022/03/04 05:28:48;;;;;;;30.17;25.47;;;;;;;-1.07;64.98;94580.97;5052744;28;20311;-71
2022/03/04 05:31:14;;;;;;;31.07;25.87;;;;;;;-1.07;65.17;94578.41;5053748;28;20314;-70
2022/03/04 05:33:39;;;;;;;37.27;26.07;;;;;;;-0.96;64.39;94576.03;5053917;28;20268;-68
2022/03/04 05:36:04;;;;;;;36.20;26.80;;;;;;;-1.02;64.41;94573.78;5054069;28;20216;-69
2022/03/04 05:38:30;;;;;;;34.97;26.40;;;;;;;-0.94;64.46;94576.72;5054311;28;20270;-69
2022/03/04 05:40:55;;;;;;;31.37;24.80;;;;;;;-0.91;64.11;94574.00;5054095;28;20330;-71
2022/03/04 05:43:21;;;;;;;36.83;26.00;;;;;;;-0.91;64.09;94574.00;5052763;28;20212;-71
2022/03/04 05:45:47;;;;;;;35.03;24.97;;;;;;;-0.79;63.66;94592.22;5053074;28;20244;-71
2022/03/04 05:48:12;;;;;;;31.00;24.53;;;;;;;-0.82;63.50;94576.94;5052170;28;20263;-70
2022/03/04 05:50:37;;;;;;;33.90;22.70;;;;;;;-0.78;63.55;94586.13;5067328;28;20216;-70
2022/03/04 05:53:03;;;;;;;30.97;21.80;;;;;;;-0.76;62.82;94590.28;5051094;28;20240;-70
2022/03/04 05:55:29;;;;;;;30.90;22.50;;;;;;;-0.80;62.72;94583.66;5052610;28;20205;-70
2022/03/04 05:57:54;;;;;;;29.17;22.73;;;;;;;-0.68;62.84;94584.66;5053882;28;20220;-70
2022/03/04 06:00:21;;;;;;;29.23;23.07;;;;;;;-0.63;62.90;94590.34;5053790;28;20221;-70
2022/03/04 06:02:46;;;;;;;34.20;26.63;;;;;;;-0.65;62.39;94579.28;5051314;28;20209;-70
2022/03/04 06:05:11;;;;;;;38.87;28.47;;;;;;;-0.51;61.65;94578.44;5052767;28;20224;-69
2022/03/04 06:07:37;;;;;;;37.93;29.10;;;;;;;-0.45;61.74;94584.06;5067930;28;20209;-69
2022/03/04 06:10:03;;;;;;;49.20;35.07;;;;;;;-0.13;61.02;94582.94;5068591;28;20282;-70
2022/03/04 06:12:29;;;;;;;49.03;34.80;;;;;;;-0.25;61.26;94577.63;5055060;28;20386;-70
2022/03/04 06:14:54;;;;;;;47.27;34.13;;;;;;;-0.15;60.98;94588.19;5044212;28;20216;-69
2022/03/04 06:17:19;;;;;;;50.07;35.63;;;;;;;-0.05;60.45;94586.69;5053819;28;20271;-71
2022/03/04 06:19:45;;;;;;;51.30;36.43;;;;;;;0.12;60.22;94588.19;5052271;28;20228;-70
2022/03/04 06:22:10;;;;;;;50.07;35.67;;;;;;;0.02;60.36;94581.13;5053882;28;20215;-70
2022/03/04 06:24:37;;;;;;;47.67;35.10;;;;;;;0.33;59.18;94583.38;5051972;28;20220;-70
2022/03/04 06:27:03;;;;;;;48.77;37.37;;;;;;;0.29;59.41;94592.25;5052638;28;20225;-69
2022/03/04 06:29:28;;;;;;;43.87;33.93;;;;;;;0.21;59.39;94586.75;5050542;28;20222;-71
2022/03/04 06:31:54;;;;;;;44.50;32.60;;;;;;;0.34;59.50;94577.25;5053178;28;20219;-70
2022/03/04 06:34:20;;;;;;;44.37;31.97;;;;;;;0.30;59.60;94581.00;5052413;28;20243;-70
2022/03/04 06:36:45;;;;;;;38.17;30.57;;;;;;;0.26;59.72;94583.88;5066527;28;20239;-70
2022/03/04 06:39:11;;;;;;;39.17;28.63;;;;;;;0.33;58.87;94577.38;5055623;28;20229;-71
2022/03/04 06:41:37;;;;;;;34.07;27.90;;;;;;;0.43;58.63;94586.19;5052035;28;20227;-69
2022/03/04 06:44:04;;;;;;;32.93;28.10;;;;;;;0.65;57.46;94591.59;5051265;28;20235;-71
2022/03/04 06:46:29;;;;;;;33.53;26.63;;;;;;;0.52;58.18;94595.09;5053916;28;20227;-70
2022/03/04 06:48:55;;;;;;;38.10;28.90;;;;;;;0.57;58.29;94595.63;5051068;28;20224;-69
2022/03/04 06:51:21;;;;;;;39.80;29.00;;;;;;;0.73;58.18;94588.50;5051237;28;20235;-70
2022/03/04 06:53:46;;;;;;;43.27;31.13;;;;;;;0.73;58.47;94593.66;5050142;28;20251;-62
2022/03/04 06:56:15;;;;;;;39.90;32.07;;;;;;;0.59;58.01;94588.59;5051324;28;20307;-69
2022/03/04 06:58:41;;;;;;;42.17;30.73;;;;;;;0.68;58.39;94598.31;5067880;28;20212;-70
2022/03/04 07:01:07;;;;;;;41.33;31.27;;;;;;;0.75;57.95;94599.56;5049280;28;20498;-72
2022/03/04 07:03:33;;;;;;;40.53;32.90;;;;;;;0.78;57.91;94607.13;5050422;28;20216;-73
2022/03/04 07:05:58;;;;;;;39.67;31.20;;;;;;;0.81;58.04;94609.50;5036282;28;20216;-71
2022/03/04 07:08:24;;;;;;;41.03;32.73;;;;;;;0.82;57.76;94612.91;5049192;28;20216;-72
2022/03/04 07:10:49;;;;;;;39.73;32.40;;;;;;;0.88;57.45;94615.94;5049958;28;20212;-70
2022/03/04 07:13:15;;;;;;;44.10;33.30;;;;;;;0.83;58.21;94614.59;5050513;28;20201;-71
2022/03/04 07:15:41;;;;;;;39.63;32.30;;;;;;;1.05;57.32;94612.19;5050592;28;20274;-73
2022/03/04 07:18:07;;;;;;;46.50;34.07;;;;;;;1.08;57.57;94619.75;5049816;28;20307;-73
2022/03/04 07:20:32;;;;;;;47.00;32.90;;;;;;;1.10;57.25;94617.06;5068124;28;20315;-71
2022/03/04 07:22:58;;;;;;;44.77;33.20;;;;;;;1.28;56.94;94617.56;5051159;28;20326;-71
2022/03/04 07:25:23;;;;;;;49.77;36.13;;;;;;;1.32;56.85;94616.44;5052127;28;20212;-71
2022/03/04 07:27:49;;;;;;;42.43;33.80;;;;;;;1.15;56.39;94620.19;5051921;28;20232;-71
2022/03/04 07:30:16;;;;;;;43.30;32.93;;;;;;;1.22;56.66;94618.81;5065741;28;20248;-73
2022/03/04 07:32:43;;;;;;;45.43;33.97;;;;;;;1.33;56.14;94618.06;5049618;28;20216;-71
2022/03/04 07:35:11;;;;;;;44.17;33.03;;;;;;;1.56;55.35;94624.25;5049245;28;20278;-72
2022/03/04 07:37:39;;;;;;;41.10;32.00;;;;;;;1.65;54.86;94621.00;5050183;28;21153;-71
2022/03/04 07:40:06;;;;;;;42.03;32.97;;;;;;;1.84;54.57;94622.31;5049166;28;20202;-71
2022/03/04 07:42:32;;;;;;;43.90;33.43;;;;;;;1.83;54.27;94623.25;5050831;28;20300;-72
2022/03/04 07:44:58;;;;;;;46.07;33.33;;;;;;;1.93;54.63;94625.09;5051561;28;20209;-72
2022/03/04 07:47:24;;;;;;;45.93;35.27;;;;;;;2.17;53.91;94617.31;5050110;28;20227;-71
2022/03/04 07:49:49;;;;;;;44.10;33.73;;;;;;;2.33;53.19;94621.41;5047087;28;20200;-71
2022/03/04 07:52:15;;;;;;;48.63;35.23;;;;;;;2.27;53.46;94622.66;5052165;28;20258;-71
2022/03/04 07:54:40;;;;;;;44.70;33.97;;;;;;;2.41;53.39;94621.66;5049997;28;20220;-72
2022/03/04 07:57:06;;;;;;;48.87;34.60;;;;;;;2.49;53.14;94616.75;5049027;28;20220;-72
2022/03/04 07:59:32;;;;;;;41.20;31.20;;;;;;;2.63;52.24;94611.34;5069787;28;20220;-72
2022/03/04 08:01:58;;;;;;;41.70;31.20;;;;;;;2.76;51.55;94615.66;5051238;28;20224;-72
2022/03/04 08:04:49;;;;;;;38.97;30.90;;;;;;;2.70;51.00;94610.88;5050965;28;20221;-71
2022/03/04 08:07:14;;;;;;;37.60;28.73;;;;;;;2.87;50.90;94619.09;5051972;28;20240;-71
2022/03/04 08:09:40;;;;;;;38.37;29.17;;;;;;;2.99;50.85;94617.31;5067362;28;20228;-72
2022/03/04 08:12:07;;;;;;;40.03;29.63;;;;;;;2.81;50.44;94613.53;5052418;28;20302;-74
2022/03/04 08:14:32;;;;;;;37.87;27.53;;;;;;;3.09;50.08;94614.88;5051045;28;20224;-73
2022/03/04 08:16:57;;;;;;;41.03;30.20;;;;;;;3.04;50.18;94611.78;5050990;28;20225;-72
2022/03/04 08:19:23;;;;;;;28.30;24.77;;;;;;;3.09;49.28;94618.28;5051618;28;20274;-71
2022/03/04 08:21:49;;;;;;;27.13;22.17;;;;;;;3.07;48.58;94620.19;5051794;28;20224;-69
2022/03/04 08:24:14;;;;;;;28.33;18.67;;;;;;;3.00;47.29;94610.38;5051309;28;20235;-70
2022/03/04 08:26:41;;;;;;;26.73;19.93;;;;;;;2.86;47.20;94619.19;5052329;28;20217;-69
2022/03/04 08:29:08;;;;;;;24.97;21.17;;;;;;;2.85;47.82;94613.16;5051917;28;20220;-70
2022/03/04 08:31:34;;;;;;;25.50;19.27;;;;;;;2.72;47.88;94616.81;5050088;28;20208;-71
2022/03/04 08:34:00;;;;;;;26.87;21.93;;;;;;;2.73;47.82;94616.69;5053700;28;20216;-72
2022/03/04 08:36:25;;;;;;;28.07;20.90;;;;;;;2.81;48.62;94619.56;5050450;28;20232;-71
2022/03/04 08:38:51;;;;;;;28.30;21.60;;;;;;;2.82;48.62;94631.59;5043527;28;20225;-70
2022/03/04 08:41:16;;;;;;;24.80;20.13;;;;;;;2.89;48.56;94621.56;5053181;28;20223;-71
2022/03/04 08:43:42;;;;;;;31.80;21.27;;;;;;;2.98;48.01;94623.47;5051793;28;20205;-69
2022/03/04 08:46:12;;;;;;;29.03;21.63;;;;;;;3.07;48.31;94624.53;5051322;28;20212;-72
2022/03/04 08:48:37;;;;;;;28.40;20.53;;;;;;;3.08;46.86;94624.44;5067118;28;20231;-68
2022/03/04 08:51:03;;;;;;;28.87;21.43;;;;;;;3.01;47.43;94628.44;5044957;28;20210;-69
2022/03/04 08:53:31;;;;;;;28.07;21.00;;;;;;;3.08;47.31;94631.41;5051472;28;20540;-69
2022/03/04 08:55:57;;;;;;;28.83;20.40;;;;;;;3.07;47.41;94630.59;5017864;28;20246;-72
2022/03/04 08:58:22;;;;;;;26.37;19.63;;;;;;;3.09;47.55;94628.69;5049830;28;20204;-70
2022/03/04 09:00:48;;;;;;;28.23;20.33;;;;;;;3.12;48.15;94629.41;5051354;28;20327;-72
2022/03/04 09:03:14;;;;;;;24.77;19.23;;;;;;;3.15;47.35;94627.38;5049454;28;20240;-71
2022/03/04 09:05:39;;;;;;;26.60;20.43;;;;;;;3.18;47.98;94621.13;5043532;28;20237;-74
2022/03/04 09:08:05;;;;;;;26.23;20.80;;;;;;;3.21;48.04;94623.53;5051228;28;20220;-71
2022/03/04 09:10:31;;;;;;;27.17;19.97;;;;;;;3.26;47.57;94617.03;5051700;28;20224;-70
2022/03/04 09:12:56;;;;;;;29.77;20.83;;;;;;;3.24;47.00;94618.91;5050095;28;20232;-70
2022/03/04 09:15:22;;;;;;;25.30;20.27;;;;;;;3.45;46.51;94624.25;5047697;28;20260;-72
2022/03/04 09:17:47;;;;;;;28.73;20.07;;;;;;;3.53;46.56;94631.44;5048312;28;20231;-72
2022/03/04 09:20:14;;;;;;;27.13;20.57;;;;;;;3.57;47.22;94625.03;5068647;28;20263;-71
2022/03/04 09:22:40;;;;;;;31.03;21.47;;;;;;;3.83;46.77;94619.59;5065138;28;20250;-70
2022/03/04 09:25:06;;;;;;;33.63;19.93;;;;;;;3.91;45.58;94625.84;5050850;28;20243;-72
2022/03/04 09:27:31;;;;;;;25.17;20.47;;;;;;;4.14;45.51;94621.44;5051447;28;20221;-72
2022/03/04 09:29:57;;;;;;;28.50;20.30;;;;;;;4.20;45.17;94620.13;5046010;28;20316;-74
2022/03/04 09:32:23;;;;;;;27.67;20.00;;;;;;;4.36;44.64;94619.72;5051160;28;20274;-70
2022/03/04 09:34:49;;;;;;;27.20;20.10;;;;;;;4.28;44.52;94622.91;5050287;28;20199;-73
2022/03/04 09:37:14;;;;;;;27.77;18.37;;;;;;;4.34;44.53;94621.59;5047001;28;20254;-71
2022/03/04 09:39:40;;;;;;;24.30;17.37;;;;;;;4.50;44.22;94618.59;5049748;28;20324;-72
2022/03/04 09:42:06;;;;;;;27.87;19.07;;;;;;;4.56;44.42;94620.69;5052327;28;20274;-71
2022/03/04 09:44:32;;;;;;;22.60;17.93;;;;;;;4.69;45.00;94621.34;5049887;28;20213;-70
2022/03/04 09:47:00;;;;;;;24.23;18.50;;;;;;;4.80;42.49;94625.66;5049558;28;20254;-72
2022/03/04 09:49:32;;;;;;;24.07;18.27;;;;;;;4.88;43.21;94623.25;5049408;28;20209;-71
2022/03/04 09:51:57;;;;;;;26.47;18.77;;;;;;;4.68;43.53;94624.03;5050188;28;20292;-71
2022/03/04 09:54:27;;;;;;;23.20;17.00;;;;;;;4.85;43.37;94621.72;5068647;28;20284;-73
2022/03/04 09:56:54;;;;;;;26.00;17.20;;;;;;;4.90;43.51;94623.13;5045708;28;20267;-70
2022/03/04 09:59:20;;;;;;;23.37;18.47;;;;;;;4.94;42.06;94617.53;5049774;28;20618;-71
2022/03/04 10:01:46;;;;;;;23.10;18.73;;;;;;;4.96;42.38;94613.00;5050461;28;20201;-71
2022/03/04 10:04:12;;;;;;;23.43;20.03;;;;;;;4.90;43.53;94616.13;5050509;28;20240;-72
2022/03/04 10:06:40;;;;;;;29.33;22.37;;;;;;;5.17;43.07;94612.19;5049403;28;20240;-71
2022/03/04 10:09:06;;;;;;;24.47;19.10;;;;;;;5.17;42.45;94610.41;5047373;28;20217;-66
2022/03/04 10:11:34;;;;;;;28.33;20.63;;;;;;;5.63;42.73;94606.47;5050273;28;20266;-70
2022/03/04 10:14:01;;;;;;;25.87;19.87;;;;;;;5.39;41.89;94600.75;5053002;28;20217;-71
2022/03/04 10:16:35;;;;;;;24.40;20.27;;;;;;;5.49;43.63;94602.47;5056709;28;20560;-70
2022/03/04 10:19:17;;;;;;;27.07;21.17;;;;;;;5.64;41.80;94607.31;5052093;28;20251;-70
2022/03/04 10:21:45;;;;;;;24.47;21.13;;;;;;;5.78;41.24;94598.31;5068794;28;20395;-70
2022/03/04 10:24:11;;;;;;;24.70;20.87;;;;;;;5.65;41.40;94595.94;5069278;28;20221;-69
2022/03/04 10:26:36;;;;;;;25.87;21.07;;;;;;;5.86;41.14;94588.84;5052245;28;20248;-71
2022/03/04 10:29:24;;;;;;;28.40;20.23;;;;;;;6.28;41.89;94593.06;5051841;28;20226;-70
2022/03/04 10:32:19;;;;;;;26.23;17.10;;;;;;;6.54;41.81;94586.34;5051337;28;20297;-70
2022/03/04 10:34:58;;;;;;;21.77;18.77;;;;;;;6.46;40.79;94577.56;5049750;28;20280;-71
2022/03/04 10:37:39;;;;;;;22.63;17.63;;;;;;;6.62;41.25;94576.03;5053084;28;20219;-67
2022/03/04 10:40:07;;;;;;;28.87;19.60;;;;;;;6.88;41.17;94577.25;5063970;28;20232;-70
2022/03/04 10:42:52;;;;;;;25.00;19.83;;;;;;;7.00;38.06;94565.66;5054527;28;20224;-70
2022/03/04 10:45:40;;;;;;;24.70;18.73;;;;;;;6.81;39.48;94566.53;5050882;28;20823;-70
2022/03/04 10:48:11;;;;;;;24.60;19.03;;;;;;;7.46;38.45;94562.25;5048268;28;20221;-69
2022/03/04 10:50:40;;;;;;;25.87;18.93;;;;;;;7.34;37.85;94552.09;5067242;28;20220;-74
2022/03/04 10:53:08;;;;;;;24.57;18.70;;;;;;;7.65;38.19;94555.28;5052317;28;20224;-68
2022/03/04 10:55:40;;;;;;;26.33;18.13;;;;;;;7.84;37.14;94543.88;5069040;28;20220;-69
2022/03/04 10:58:18;;;;;;;26.93;19.70;;;;;;;7.84;37.27;94549.94;5062611;28;20907;-70
2022/03/04 11:00:54;;;;;;;24.30;19.93;;;;;;;8.24;39.10;94537.41;5067948;28;20228;-69
2022/03/04 11:03:30;;;;;;;24.43;19.03;;;;;;;8.53;37.20;94539.84;5052412;28;20217;-69
2022/03/04 11:06:01;;;;;;;25.93;18.27;;;;;;;8.70;36.55;94535.56;5051745;28;20247;-70
2022/03/04 11:08:27;;;;;;;27.73;19.57;;;;;;;8.67;35.62;94531.44;5051741;28;20240;-71
2022/03/04 11:10:55;;;;;;;28.90;19.70;;;;;;;8.64;36.14;94531.75;5053897;28;20233;-71
2022/03/04 11:13:20;;;;;;;25.53;18.57;;;;;;;8.57;35.64;94528.06;5069700;28;20739;-71
2022/03/04 11:15:47;;;;;;;29.60;19.20;;;;;;;8.53;35.15;94518.88;5059924;28;20304;-69
2022/03/04 11:18:16;;;;;;;22.93;18.43;;;;;;;8.81;35.60;94512.53;5052358;28;20315;-70
2022/03/04 11:20:44;;;;;;;24.10;16.90;;;;;;;8.76;35.18;94516.59;5070224;28;20251;-68
2022/03/04 11:23:15;;;;;;;21.00;17.43;;;;;;;8.67;34.78;94514.88;5062063;28;20228;-70